Time;durP1;ratioP1;P1;durP2;ratioP2;P2;SDS_P1;SDS_P2;PMS_P1;PMS_P2;Temp;Humidity;BMP_temperature;BMP_pressure;BME280_temperature;BME280_humidity;BME280_pressure;Samples;Min_cycle;Max_cycle;Signal;HPM_P1;HPM_P2
2022/09/04 00:01:41;;;;;;;0.00;0.00;;;;;;;14.47;65.79;100458.22;5073067;28;20206;-73
2022/09/04 00:04:21;;;;;;;0.00;0.00;;;;;;;14.42;65.83;100453.69;5072946;28;20178;-73
2022/09/04 00:07:13;;;;;;;0.00;0.00;;;;;;;14.25;66.49;100451.88;5071513;28;20186;-73
2022/09/04 00:10:08;;;;;;;0.00;0.00;;;;;;;14.30;66.35;100462.66;5068021;28;20534;-73
2022/09/04 00:12:43;;;;;;;0.00;0.00;;;;;;;14.28;66.42;100455.91;5073092;28;20196;-73
2022/09/04 00:15:26;;;;;;;0.00;0.00;;;;;;;14.27;66.63;100462.53;5073451;28;20585;-73
2022/09/04 00:18:10;;;;;;;0.00;0.00;;;;;;;14.22;66.75;100458.06;5073516;28;20170;-73
2022/09/04 00:20:51;;;;;;;0.00;0.00;;;;;;;14.24;66.86;100461.28;5072930;28;20198;-73
2022/09/04 00:23:43;;;;;;;0.00;0.00;;;;;;;14.10;67.12;100459.94;5073064;28;20186;-73
2022/09/04 00:26:26;;;;;;;0.00;0.00;;;;;;;14.02;67.55;100463.53;5071780;28;20221;-73
2022/09/04 00:28:59;;;;;;;0.00;0.00;;;;;;;14.04;67.78;100464.81;5072977;28;20167;-73
2022/09/04 00:31:37;;;;;;;0.00;0.00;;;;;;;14.02;67.76;100461.59;5072756;28;20179;-73
2022/09/04 00:34:34;;;;;;;0.00;0.00;;;;;;;14.09;67.71;100459.13;5072514;28;20162;-73
2022/09/04 00:37:11;;;;;;;0.00;0.00;;;;;;;14.11;67.71;100453.28;5072504;28;20175;-73
2022/09/04 00:39:49;;;;;;;0.00;0.00;;;;;;;14.09;67.61;100456.38;5072566;28;20503;-73
2022/09/04 00:42:46;;;;;;;0.00;0.00;;;;;;;14.02;67.95;100469.81;5071137;28;20189;-73
2022/09/04 00:45:21;;;;;;;0.00;0.00;;;;;;;14.02;67.82;100461.59;5034449;28;20196;-73
2022/09/04 00:48:04;;;;;;;0.00;0.00;;;;;;;14.04;67.99;100464.03;5072424;28;20265;-73
2022/09/04 00:50:40;;;;;;;0.00;0.00;;;;;;;14.06;68.21;100462.53;5072390;28;20535;-73
2022/09/04 00:53:33;;;;;;;0.00;0.00;;;;;;;13.95;67.80;100456.63;5072194;28;20198;-73
2022/09/04 00:56:10;;;;;;;0.00;0.00;;;;;;;13.89;68.41;100459.94;5072139;28;20190;-73
2022/09/04 00:59:01;;;;;;;0.33;0.33;;;;;;;13.89;68.62;100451.69;5070806;28;20605;-73
2022/09/04 01:01:27;;;;;;;0.10;0.10;;;;;;;13.83;68.81;100455.75;5071803;28;20296;-73
2022/09/04 01:04:15;;;;;;;0.00;0.00;;;;;;;13.67;69.39;100452.78;5071822;28;20233;-73
2022/09/04 01:07:13;;;;;;;0.00;0.00;;;;;;;13.73;69.64;100459.66;5065847;28;20190;-73
2022/09/04 01:09:57;;;;;;;0.00;0.00;;;;;;;13.67;69.72;100461.81;5070847;28;20670;-73
2022/09/04 01:12:36;;;;;;;0.00;0.00;;;;;;;13.58;70.01;100462.97;5071965;28;20571;-73
2022/09/04 01:15:18;;;;;;;0.00;0.00;;;;;;;13.62;70.37;100459.28;5071747;28;20170;-73
2022/09/04 01:18:05;;;;;;;0.00;0.00;;;;;;;13.65;70.34;100463.28;5070360;28;20186;-72
2022/09/04 01:20:54;;;;;;;0.00;0.00;;;;;;;13.69;70.30;100461.47;5071469;28;20205;-73
2022/09/04 01:23:57;;;;;;;0.00;0.00;;;;;;;13.59;70.73;100459.91;5071745;28;20641;-73
2022/09/04 01:26:50;;;;;;;0.00;0.00;;;;;;;13.72;70.26;100458.06;5071584;28;20171;-73
2022/09/04 01:29:30;;;;;;;0.00;0.00;;;;;;;13.69;70.41;100454.03;5070144;28;20185;-73
2022/09/04 01:32:27;;;;;;;0.00;0.00;;;;;;;13.65;70.66;100458.59;5071582;28;20530;-73
2022/09/04 01:35:00;;;;;;;0.00;0.00;;;;;;;13.56;70.91;100466.06;5053175;28;20182;-73
2022/09/04 01:37:57;;;;;;;0.00;0.00;;;;;;;13.66;70.69;100470.38;5070350;28;20257;-73
2022/09/04 01:40:41;;;;;;;0.00;0.00;;;;;;;13.77;70.81;100479.06;5071306;28;20289;-73
2022/09/04 01:43:19;;;;;;;0.00;0.00;;;;;;;13.86;70.59;100479.78;5071245;28;20166;-74
2022/09/04 01:45:54;;;;;;;3.17;0.70;;;;;;;13.93;70.25;100482.84;5071239;28;20155;-73
2022/09/04 01:48:32;;;;;;;0.47;0.47;;;;;;;13.93;69.99;100493.81;5071276;28;20178;-73
2022/09/04 01:51:05;;;;;;;0.00;0.00;;;;;;;13.87;70.06;100489.63;5071098;28;20202;-73
2022/09/04 01:53:36;;;;;;;0.00;0.00;;;;;;;13.76;70.87;100491.19;5070917;28;20505;-73
2022/09/04 01:56:21;;;;;;;0.00;0.00;;;;;;;13.88;71.48;100496.75;5071019;28;20190;-73
2022/09/04 01:59:00;;;;;;;0.00;0.00;;;;;;;13.77;70.92;100493.59;5071051;28;20181;-73
2022/09/04 02:01:46;;;;;;;0.00;0.00;;;;;;;13.94;71.23;100492.69;5070796;28;20284;-73
2022/09/04 02:04:27;;;;;;;0.00;0.00;;;;;;;13.97;71.14;100497.50;5070637;28;20695;-73
2022/09/04 02:07:02;;;;;;;0.00;0.00;;;;;;;13.85;71.37;100492.72;5069375;28;20178;-73
2022/09/04 02:09:49;;;;;;;0.00;0.00;;;;;;;13.93;71.33;100496.56;5070684;28;20188;-73
2022/09/04 02:12:15;;;;;;;0.00;0.00;;;;;;;14.05;70.85;100495.84;5070803;28;20179;-73
2022/09/04 02:15:11;;;;;;;0.00;0.00;;;;;;;14.06;70.84;100497.47;5070708;28;20170;-74
2022/09/04 02:17:56;;;;;;;0.00;0.00;;;;;;;13.86;71.05;100494.31;5070704;28;20171;-74
2022/09/04 02:20:26;;;;;;;0.00;0.00;;;;;;;13.80;71.42;100495.66;5070299;28;20190;-73
2022/09/04 02:23:19;;;;;;;0.00;0.00;;;;;;;13.82;71.43;100495.34;5070593;28;20178;-73
2022/09/04 02:25:56;;;;;;;0.00;0.00;;;;;;;13.69;71.62;100492.47;5069135;28;20171;-74
2022/09/04 02:28:58;;;;;;;0.00;0.00;;;;;;;13.62;71.62;100494.97;5070599;28;20519;-74
2022/09/04 02:31:33;;;;;;;0.00;0.00;;;;;;;13.66;71.65;100498.66;5069242;28;20213;-73
2022/09/04 02:34:03;;;;;;;0.40;0.40;;;;;;;13.51;71.96;100501.94;5070258;28;20166;-73
2022/09/04 02:36:40;;;;;;;0.00;0.00;;;;;;;13.38;72.60;100503.78;5070643;28;20167;-73
2022/09/04 02:40:00;;;;;;;0.00;0.00;;;;;;;13.25;73.22;100487.50;5070783;28;20213;-73
2022/09/04 02:43:02;;;;;;;0.00;0.00;;;;;;;13.36;73.13;100499.75;5027954;28;20191;-74
2022/09/04 02:45:46;;;;;;;0.00;0.00;;;;;;;13.31;73.23;100500.75;5070329;28;20357;-73
2022/09/04 02:48:27;;;;;;;0.00;0.00;;;;;;;13.26;73.05;100497.34;5070306;28;20562;-73
2022/09/04 02:51:33;;;;;;;0.00;0.00;;;;;;;13.30;73.07;100501.84;5070352;28;20467;-73
2022/09/04 02:54:18;;;;;;;0.00;0.00;;;;;;;13.30;73.37;100501.03;5010940;28;20176;-74
2022/09/04 02:57:18;;;;;;;0.00;0.00;;;;;;;13.23;74.01;100503.50;5068483;28;20198;-73
2022/09/04 03:00:17;;;;;;;0.00;0.00;;;;;;;13.20;73.62;100499.47;5062912;28;20198;-73
2022/09/04 03:02:50;;;;;;;0.00;0.00;;;;;;;13.01;74.40;100499.81;5070280;28;20181;-73
2022/09/04 03:05:23;;;;;;;0.00;0.00;;;;;;;12.87;75.11;100495.63;5069743;28;20183;-73
2022/09/04 03:08:07;;;;;;;0.00;0.00;;;;;;;12.79;75.17;100500.03;5069906;28;20646;-73
2022/09/04 03:10:52;;;;;;;0.00;0.00;;;;;;;12.55;76.43;100495.03;5070224;28;20638;-73
2022/09/04 03:13:39;;;;;;;0.00;0.00;;;;;;;12.54;77.21;100495.34;5070049;28;20183;-73
2022/09/04 03:16:28;;;;;;;0.00;0.00;;;;;;;12.61;76.50;100501.97;5070428;28;20178;-73
2022/09/04 03:19:04;;;;;;;0.00;0.00;;;;;;;12.67;76.73;100506.16;5070080;28;20170;-73
2022/09/04 03:21:58;;;;;;;0.00;0.00;;;;;;;12.87;76.15;100515.63;5069892;28;20301;-73
2022/09/04 03:24:41;;;;;;;0.10;0.10;;;;;;;12.92;76.01;100529.19;5069866;28;20178;-73
2022/09/04 03:27:11;;;;;;;0.00;0.00;;;;;;;12.96;75.54;100523.88;5069934;28;20717;-73
2022/09/04 03:29:50;;;;;;;0.00;0.00;;;;;;;13.02;75.79;100517.09;5069971;28;20244;-73
2022/09/04 03:32:45;;;;;;;0.00;0.00;;;;;;;12.98;75.78;100527.06;5069842;28;20174;-73
2022/09/04 03:35:20;;;;;;;0.00;0.00;;;;;;;13.02;76.08;100534.34;5073586;28;20526;-73
2022/09/04 03:37:57;;;;;;;0.00;0.00;;;;;;;13.08;76.05;100527.56;5073705;28;20637;-73
2022/09/04 03:40:37;;;;;;;0.00;0.00;;;;;;;13.15;75.36;100538.00;5073683;28;20194;-73
2022/09/04 03:43:08;;;;;;;0.00;0.00;;;;;;;13.16;75.30;100542.38;5073588;28;20174;-74
2022/09/04 03:45:52;;;;;;;0.00;0.00;;;;;;;13.19;75.20;100544.50;5073747;28;20185;-73
2022/09/04 03:48:47;;;;;;;0.00;0.00;;;;;;;13.18;75.14;100551.13;5073543;28;20197;-73
2022/09/04 03:51:36;;;;;;;0.00;0.00;;;;;;;12.82;75.61;100556.94;5073287;28;20224;-73
2022/09/04 03:54:24;;;;;;;0.00;0.00;;;;;;;12.51;77.18;100554.38;5051637;28;20266;-73
2022/09/04 03:56:50;;;;;;;0.33;0.33;;;;;;;12.33;78.29;100550.81;5073236;28;20594;-74
2022/09/04 03:59:40;;;;;;;0.00;0.00;;;;;;;12.23;78.55;100547.56;5071893;28;20270;-73
2022/09/04 04:02:28;;;;;;;0.00;0.00;;;;;;;12.06;79.38;100545.59;5073149;28;20429;-73
2022/09/04 04:05:13;;;;;;;0.00;0.00;;;;;;;11.91;80.27;100538.63;5072957;28;20174;-73
2022/09/04 04:08:03;;;;;;;0.00;0.00;;;;;;;11.94;81.03;100545.41;5073445;28;20245;-73
2022/09/04 04:10:59;;;;;;;0.00;0.00;;;;;;;11.98;80.90;100544.44;5073096;28;20178;-74
2022/09/04 04:13:52;;;;;;;0.00;0.00;;;;;;;11.86;80.91;100561.50;5052794;28;20178;-73
2022/09/04 04:16:32;;;;;;;0.00;0.00;;;;;;;12.04;81.09;100561.53;5072990;28;20174;-73
2022/09/04 04:19:35;;;;;;;1.43;1.43;;;;;;;12.14;80.21;100563.97;5073266;28;20189;-73
2022/09/04 04:22:16;;;;;;;0.00;0.00;;;;;;;12.18;80.38;100562.22;5072843;28;20198;-74
2022/09/04 04:25:01;;;;;;;0.00;0.00;;;;;;;12.11;80.28;100564.59;5072611;28;20171;-73
2022/09/04 04:27:45;;;;;;;0.00;0.00;;;;;;;12.04;80.19;100561.53;5072870;28;20657;-73
2022/09/04 04:30:14;;;;;;;0.00;0.00;;;;;;;12.01;80.16;100568.47;5071348;28;20468;-73
2022/09/04 04:33:18;;;;;;;0.00;0.00;;;;;;;12.12;79.53;100577.19;5072660;28;20688;-74
2022/09/04 04:35:48;;;;;;;0.00;0.00;;;;;;;12.23;79.98;100591.38;5072043;28;20594;-73
2022/09/04 04:38:35;;;;;;;0.00;0.00;;;;;;;12.10;80.35;100580.22;5072661;28;20274;-73
2022/09/04 04:41:03;;;;;;;0.00;0.00;;;;;;;12.08;80.39;100585.22;5072442;28;20285;-74
2022/09/04 04:43:41;;;;;;;0.00;0.00;;;;;;;11.98;80.43;100593.72;5072139;28;20177;-73
2022/09/04 04:46:09;;;;;;;0.00;0.00;;;;;;;11.84;81.48;100588.34;5072426;28;20170;-73
2022/09/04 04:49:08;;;;;;;0.00;0.00;;;;;;;11.65;82.48;100592.44;5072407;28;20266;-73
2022/09/04 04:51:56;;;;;;;0.30;0.30;;;;;;;11.68;83.00;100600.00;5072337;28;20200;-73
2022/09/04 04:54:52;;;;;;;0.00;0.00;;;;;;;11.86;82.82;100607.19;5072405;28;20166;-74
2022/09/04 04:57:47;;;;;;;0.00;0.00;;;;;;;11.79;82.76;100606.88;5072094;28;20174;-73
2022/09/04 05:00:18;;;;;;;0.00;0.00;;;;;;;11.63;83.00;100604.50;5070646;28;20709;-73
2022/09/04 05:02:50;;;;;;;0.00;0.00;;;;;;;11.45;83.73;100608.28;5072483;28;20532;-72
2022/09/04 05:05:36;;;;;;;0.00;0.00;;;;;;;11.39;84.81;100609.50;5069922;28;20174;-73
2022/09/04 05:08:29;;;;;;;0.00;0.00;;;;;;;11.35;85.62;100608.53;5050489;28;20186;-74
2022/09/04 05:11:16;;;;;;;0.10;0.10;;;;;;;11.29;86.16;100613.34;5072046;28;20289;-73
2022/09/04 05:14:12;;;;;;;0.00;0.00;;;;;;;11.38;86.38;100612.56;5071627;28;20236;-72
2022/09/04 05:16:51;;;;;;;11.73;10.73;;;;;;;11.38;86.60;100620.78;5071800;28;20637;-73
2022/09/04 05:19:31;;;;;;;0.00;0.00;;;;;;;11.51;86.34;100623.44;5072210;28;20178;-73
2022/09/04 05:22:21;;;;;;;0.00;0.00;;;;;;;11.68;85.67;100617.25;5071580;28;20260;-73
2022/09/04 05:25:09;;;;;;;0.00;0.00;;;;;;;11.81;85.26;100624.59;5071370;28;20232;-74
2022/09/04 05:27:47;;;;;;;0.00;0.00;;;;;;;11.84;84.86;100628.63;5071587;28;20220;-74
2022/09/04 05:30:27;;;;;;;1.10;1.10;;;;;;;11.86;83.78;100627.19;5070381;28;20170;-73
2022/09/04 05:33:01;;;;;;;0.00;0.00;;;;;;;11.77;83.74;100639.19;5070272;28;20645;-73
2022/09/04 05:35:32;;;;;;;0.00;0.00;;;;;;;11.90;84.38;100652.00;5071429;28;20185;-73
2022/09/04 05:38:15;;;;;;;0.00;0.00;;;;;;;12.10;83.90;100656.13;5071544;28;20174;-73
2022/09/04 05:41:02;;;;;;;0.10;0.10;;;;;;;12.11;83.95;100657.72;5071252;28;20190;-73
2022/09/04 05:43:57;;;;;;;0.00;0.00;;;;;;;12.11;83.21;100661.28;5071197;28;20174;-73
2022/09/04 05:46:53;;;;;;;0.00;0.00;;;;;;;12.09;84.17;100660.78;5071285;28;20186;-74
2022/09/04 05:49:24;;;;;;;0.00;0.00;;;;;;;12.04;84.33;100660.13;5071245;28;20212;-74
2022/09/04 05:52:16;;;;;;;0.00;0.00;;;;;;;12.05;84.35;100668.03;5071010;28;20174;-73
2022/09/04 05:55:03;;;;;;;0.00;0.00;;;;;;;12.15;84.33;100669.66;5071038;28;20472;-75
2022/09/04 05:57:46;;;;;;;0.00;0.00;;;;;;;12.28;83.89;100676.16;5070417;28;20190;-74
2022/09/04 06:00:19;;;;;;;0.00;0.00;;;;;;;12.30;84.12;100680.22;5070910;28;20170;-73
2022/09/04 06:03:03;;;;;;;0.00;0.00;;;;;;;12.39;84.47;100672.81;5071022;28;20625;-73
2022/09/04 06:05:42;;;;;;;0.00;0.00;;;;;;;12.48;83.42;100679.13;5069017;28;20260;-73
2022/09/04 06:08:10;;;;;;;0.57;0.57;;;;;;;12.48;83.42;100686.56;5070884;28;20206;-73
2022/09/04 06:11:12;;;;;;;0.70;0.70;;;;;;;12.46;82.91;100677.84;5070849;28;20262;-73
2022/09/04 06:13:59;;;;;;;0.00;0.00;;;;;;;12.63;82.24;100691.59;5070356;28;20174;-74
2022/09/04 06:16:45;;;;;;;0.00;0.00;;;;;;;12.81;82.36;100682.25;5070903;28;20178;-73
2022/09/04 06:19:34;;;;;;;0.10;0.10;;;;;;;12.87;81.80;100688.38;5070777;28;20534;-73
2022/09/04 06:22:36;;;;;;;3.20;2.70;;;;;;;12.95;81.56;100692.28;5050730;28;20226;-73
2022/09/04 06:25:18;;;;;;;0.20;0.20;;;;;;;13.07;81.00;100695.22;5070550;28;20182;-73
2022/09/04 06:27:55;;;;;;;0.17;0.17;;;;;;;13.22;80.80;100705.72;5070549;28;20320;-73
2022/09/04 06:30:22;;;;;;;0.00;0.00;;;;;;;13.27;80.27;100707.50;5070517;28;20727;-73
2022/09/04 06:33:06;;;;;;;0.00;0.00;;;;;;;13.31;80.21;100713.97;5070547;28;20643;-73
2022/09/04 06:35:55;;;;;;;0.00;0.00;;;;;;;13.48;79.55;100727.69;5070335;28;20170;-74
2022/09/04 06:38:50;;;;;;;0.00;0.00;;;;;;;13.53;79.53;100724.78;5070567;28;20178;-73
2022/09/04 06:41:51;;;;;;;0.00;0.00;;;;;;;13.73;79.57;100727.97;5069061;28;20279;-73
2022/09/04 06:44:33;;;;;;;0.00;0.00;;;;;;;13.75;78.57;100723.78;5067787;28;20295;-73
2022/09/04 06:47:13;;;;;;;0.00;0.00;;;;;;;13.76;78.23;100732.84;5070434;28;20174;-73
2022/09/04 06:50:10;;;;;;;0.00;0.00;;;;;;;13.90;78.34;100720.53;5069330;28;20555;-73
2022/09/04 06:53:03;;;;;;;0.27;0.27;;;;;;;14.05;78.25;100730.19;5070256;28;20645;-73
2022/09/04 06:55:36;;;;;;;0.30;0.20;;;;;;;14.11;77.78;100728.84;5069920;28;20178;-73
2022/09/04 06:58:13;;;;;;;0.33;0.33;;;;;;;14.28;78.24;100728.78;5070130;28;20661;-73
2022/09/04 07:00:54;;;;;;;0.00;0.00;;;;;;;14.48;77.66;100735.56;5070203;28;20200;-73
2022/09/04 07:03:30;;;;;;;0.00;0.00;;;;;;;14.55;76.65;100735.03;5070087;28;20179;-74
2022/09/04 07:06:10;;;;;;;0.10;0.10;;;;;;;14.69;76.39;100748.53;5069768;28;20617;-73
2022/09/04 07:08:44;;;;;;;0.07;0.07;;;;;;;14.85;76.16;100744.09;5072149;28;20201;-73
2022/09/04 07:11:15;;;;;;;0.73;0.73;;;;;;;14.98;75.21;100744.97;5074438;28;20265;-74
2022/09/04 07:13:47;;;;;;;2.17;2.13;;;;;;;15.14;75.34;100743.25;5073822;28;20174;-73
2022/09/04 07:16:50;;;;;;;0.00;0.00;;;;;;;15.21;74.10;100746.28;5074299;28;20200;-73
2022/09/04 07:19:52;;;;;;;0.00;0.00;;;;;;;15.34;74.18;100749.91;5072779;28;20178;-73
2022/09/04 07:22:24;;;;;;;0.33;0.33;;;;;;;15.50;73.66;100744.59;5074051;28;20202;-73
2022/09/04 07:24:58;;;;;;;0.63;0.43;;;;;;;15.61;73.16;100743.88;5073747;28;20181;-73
2022/09/04 07:27:49;;;;;;;0.70;0.70;;;;;;;15.77;72.73;100746.81;5072775;28;20186;-73
2022/09/04 07:30:16;;;;;;;0.20;0.20;;;;;;;15.71;72.18;100751.72;5073867;28;20179;-73
2022/09/04 07:32:53;;;;;;;0.20;0.07;;;;;;;15.79;71.98;100746.47;5074168;28;20253;-73
2022/09/04 07:35:22;;;;;;;1.03;0.73;;;;;;;15.90;71.88;100742.94;5074099;28;20170;-73
2022/09/04 07:38:21;;;;;;;0.50;0.50;;;;;;;16.04;71.39;100750.91;5074048;28;20201;-73
2022/09/04 07:40:54;;;;;;;0.10;0.10;;;;;;;16.19;71.38;100755.75;5073521;28;20268;-73
2022/09/04 07:43:43;;;;;;;0.13;0.13;;;;;;;16.30;70.86;100756.94;5073487;28;20175;-73
2022/09/04 07:46:18;;;;;;;0.30;0.30;;;;;;;16.32;70.20;100742.81;5072263;28;20182;-73
2022/09/04 07:48:53;;;;;;;0.30;0.30;;;;;;;16.34;70.20;100757.06;5073499;28;20169;-73
2022/09/04 07:51:32;;;;;;;0.00;0.00;;;;;;;16.47;70.36;100753.16;5073250;28;20257;-73
2022/09/04 07:54:33;;;;;;;1.27;1.23;;;;;;;16.70;70.51;100756.31;5073081;28;20182;-73
2022/09/04 07:57:25;;;;;;;0.00;0.00;;;;;;;16.87;70.06;100758.03;5073230;28;20593;-73
2022/09/04 08:00:00;;;;;;;0.37;0.37;;;;;;;17.02;69.03;100765.63;5073706;28;20182;-73
2022/09/04 08:02:47;;;;;;;0.70;0.70;;;;;;;16.87;68.48;100777.34;5073611;28;20209;-73
2022/09/04 08:05:37;;;;;;;0.27;0.27;;;;;;;17.07;69.46;100773.69;5072649;28;20173;-73
2022/09/04 08:08:37;;;;;;;0.10;0.10;;;;;;;17.26;68.53;100781.34;5073197;28;20178;-73
2022/09/04 08:11:37;;;;;;;0.70;0.70;;;;;;;17.33;67.95;100797.31;5072601;28;20190;-73
2022/09/04 08:14:36;;;;;;;0.13;0.13;;;;;;;17.33;67.59;100800.06;5063360;28;20228;-74
2022/09/04 08:17:24;;;;;;;0.43;0.43;;;;;;;17.30;66.91;100803.53;5073538;28;20190;-74
2022/09/04 08:20:27;;;;;;;0.77;0.73;;;;;;;17.30;66.91;100806.31;5072284;28;20182;-73
2022/09/04 08:23:04;;;;;;;0.20;0.20;;;;;;;17.47;67.59;100808.81;5073251;28;20209;-74
2022/09/04 08:26:13;;;;;;;0.30;0.30;;;;;;;17.55;66.29;100816.16;5072533;28;20190;-73
2022/09/04 08:29:15;;;;;;;0.07;0.00;;;;;;;17.65;66.69;100814.84;5072769;28;20220;-73
2022/09/04 08:32:12;;;;;;;0.30;0.30;;;;;;;17.80;66.27;100823.25;5072847;28;20257;-73
2022/09/04 08:34:59;;;;;;;0.73;0.47;;;;;;;17.88;65.12;100817.91;5072393;28;20179;-73
2022/09/04 08:37:49;;;;;;;0.00;0.00;;;;;;;18.02;65.19;100819.13;5072561;28;20185;-73
2022/09/04 08:40:42;;;;;;;0.00;0.00;;;;;;;18.24;65.28;100814.19;5065947;28;20279;-73
2022/09/04 08:43:32;;;;;;;0.00;0.00;;;;;;;18.34;64.22;100821.97;5072653;28;20223;-73
2022/09/04 08:46:46;;;;;;;0.17;0.17;;;;;;;18.35;64.32;100827.13;5072566;28;20638;-73
2022/09/04 08:49:37;;;;;;;0.00;0.00;;;;;;;18.36;64.12;100825.97;5072456;28;20261;-73
2022/09/04 08:52:37;;;;;;;0.20;0.20;;;;;;;18.49;63.60;100826.72;5072728;28;20175;-73
2022/09/04 08:55:45;;;;;;;0.00;0.00;;;;;;;18.56;63.17;100823.34;5071960;28;20258;-73
2022/09/04 08:58:42;;;;;;;0.20;0.10;;;;;;;18.63;62.93;100831.81;5067120;28;20182;-73
2022/09/04 09:01:35;;;;;;;0.00;0.00;;;;;;;18.82;63.24;100839.47;5070936;28;20206;-73
2022/09/04 09:04:40;;;;;;;0.00;0.00;;;;;;;18.99;62.81;100836.31;5072049;28;20189;-73
2022/09/04 09:07:24;;;;;;;0.07;0.07;;;;;;;18.95;61.66;100838.19;5070460;28;20179;-73
2022/09/04 09:10:08;;;;;;;0.17;0.17;;;;;;;18.98;61.37;100837.47;5072012;28;20620;-73
2022/09/04 09:12:59;;;;;;;0.07;0.07;;;;;;;18.94;61.21;100845.69;5071943;28;20175;-73
2022/09/04 09:15:32;;;;;;;0.00;0.00;;;;;;;19.19;61.90;100851.03;5071725;28;20573;-74
2022/09/04 09:18:07;;;;;;;0.00;0.00;;;;;;;19.28;60.87;100840.56;5071855;28;20569;-73
2022/09/04 09:21:28;;;;;;;0.50;0.50;;;;;;;19.50;61.29;100841.84;5071675;28;20234;-74
2022/09/04 09:24:12;;;;;;;0.10;0.10;;;;;;;19.48;60.23;100842.22;5048585;28;20184;-73
2022/09/04 09:26:56;;;;;;;0.13;0.03;;;;;;;19.60;60.09;100838.53;5069476;28;20667;-73
2022/09/04 09:29:59;;;;;;;0.00;0.00;;;;;;;19.66;59.84;100833.50;5071930;28;20258;-73
2022/09/04 09:32:44;;;;;;;0.00;0.00;;;;;;;19.85;60.75;100834.34;5070984;28;20257;-73
2022/09/04 09:35:40;;;;;;;0.10;0.10;;;;;;;19.94;59.75;100833.28;5071210;28;20207;-73
2022/09/04 09:38:43;;;;;;;0.00;0.00;;;;;;;20.00;59.23;100826.31;5071334;28;20181;-73
2022/09/04 09:41:15;;;;;;;1.43;0.60;;;;;;;20.26;60.01;100828.41;5071508;28;20231;-73
2022/09/04 09:44:02;;;;;;;0.20;0.20;;;;;;;20.18;58.11;100828.25;5071234;28;20201;-73
2022/09/04 09:46:49;;;;;;;1.67;1.57;;;;;;;20.16;58.36;100829.78;5071214;28;20182;-73
2022/09/04 09:49:34;;;;;;;2.77;0.60;;;;;;;20.25;59.02;100833.13;5071174;28;20206;-73
2022/09/04 09:52:36;;;;;;;0.00;0.00;;;;;;;20.42;58.65;100827.16;5071172;28;20170;-73
2022/09/04 09:55:02;;;;;;;1.57;1.47;;;;;;;20.41;57.83;100821.94;5070736;28;20576;-73
2022/09/04 09:58:21;;;;;;;0.37;0.37;;;;;;;20.50;58.53;100825.28;5070865;28;20184;-73
2022/09/04 10:01:15;;;;;;;0.30;0.20;;;;;;;20.55;57.51;100827.78;5070878;28;20276;-73
2022/09/04 10:03:59;;;;;;;0.83;0.83;;;;;;;20.72;57.32;100824.50;5070585;28;20177;-73
2022/09/04 10:06:59;;;;;;;0.00;0.00;;;;;;;20.76;56.74;100825.38;5070682;28;20189;-73
2022/09/04 10:09:48;;;;;;;0.67;0.67;;;;;;;20.77;56.50;100826.16;5070802;28;20177;-73
2022/09/04 10:12:51;;;;;;;1.80;1.70;;;;;;;20.76;56.29;100827.34;5070845;28;20195;-73
2022/09/04 10:15:36;;;;;;;0.20;0.20;;;;;;;21.03;56.69;100817.88;5070515;28;20220;-73
2022/09/04 10:18:31;;;;;;;0.60;0.60;;;;;;;21.08;55.80;100811.97;5070715;28;20175;-73
2022/09/04 10:21:49;;;;;;;0.10;0.10;;;;;;;21.26;56.21;100814.25;5070582;28;20246;-74
2022/09/04 10:24:26;;;;;;;0.20;0.13;;;;;;;21.28;56.01;100809.16;5070787;28;20181;-73
2022/09/04 10:27:10;;;;;;;4.33;1.17;;;;;;;21.42;55.25;100808.56;5070606;28;20631;-73
2022/09/04 10:29:47;;;;;;;0.00;0.00;;;;;;;21.41;55.34;100809.69;5070527;28;20176;-73
2022/09/04 10:32:31;;;;;;;0.00;0.00;;;;;;;21.72;55.68;100806.56;5070612;28;20184;-73
2022/09/04 10:35:24;;;;;;;0.20;0.20;;;;;;;21.72;54.13;100805.75;5070423;28;20232;-73
2022/09/04 10:38:02;;;;;;;0.00;0.00;;;;;;;21.78;54.93;100804.25;5070440;28;20175;-73
2022/09/04 10:40:42;;;;;;;0.30;0.30;;;;;;;21.86;53.80;100814.28;5070471;28;20261;-73
2022/09/04 10:43:29;;;;;;;0.67;0.67;;;;;;;22.26;53.80;100816.34;5070226;28;20175;-73
2022/09/04 10:46:23;;;;;;;0.10;0.10;;;;;;;22.37;52.67;100817.25;5070457;28;20171;-73
2022/09/04 10:49:07;;;;;;;0.00;0.00;;;;;;;22.38;52.85;100815.28;5070430;28;20206;-73
2022/09/04 10:51:50;;;;;;;0.20;0.20;;;;;;;22.40;52.29;100810.91;5070420;28;20534;-73
2022/09/04 10:54:22;;;;;;;0.33;0.33;;;;;;;22.48;52.96;100809.00;5070329;28;20252;-73
2022/09/04 10:57:00;;;;;;;0.20;0.20;;;;;;;22.35;51.63;100807.69;5070282;28;20213;-73
2022/09/04 10:59:56;;;;;;;0.20;0.20;;;;;;;22.53;52.81;100805.88;5070175;28;20170;-73
2022/09/04 11:02:40;;;;;;;0.80;0.80;;;;;;;22.34;51.66;100811.66;5070157;28;20538;-73
2022/09/04 11:05:20;;;;;;;0.13;0.13;;;;;;;22.52;52.18;100807.06;5070175;28;20170;-73
2022/09/04 11:08:08;;;;;;;0.53;0.40;;;;;;;22.54;51.57;100804.69;5070300;28;20243;-73
2022/09/04 11:10:39;;;;;;;1.37;1.27;;;;;;;22.53;51.42;100803.88;5070161;28;20180;-72
2022/09/04 11:13:29;;;;;;;1.70;1.17;;;;;;;22.63;50.88;100799.59;5070108;28;20170;-73
2022/09/04 11:16:22;;;;;;;0.97;0.97;;;;;;;22.71;50.85;100803.22;5070010;28;20182;-73
2022/09/04 11:19:21;;;;;;;0.20;0.20;;;;;;;22.77;51.69;100794.16;5070193;28;20174;-73
2022/09/04 11:22:07;;;;;;;0.77;0.47;;;;;;;23.01;50.70;100789.19;5069840;28;20190;-73
2022/09/04 11:24:52;;;;;;;0.47;0.47;;;;;;;23.11;50.86;100794.03;5069659;28;20197;-73
2022/09/04 11:27:37;;;;;;;0.40;0.40;;;;;;;23.09;50.40;100779.69;5069958;28;20459;-73
2022/09/04 11:30:20;;;;;;;0.23;0.23;;;;;;;23.07;50.84;100782.84;5068760;28;20214;-72
2022/09/04 11:32:54;;;;;;;4.13;0.87;;;;;;;23.11;50.32;100783.66;5070013;28;20654;-73
2022/09/04 11:35:57;;;;;;;0.00;0.00;;;;;;;23.12;50.13;100790.84;5069725;28;20171;-73
2022/09/04 11:38:42;;;;;;;0.30;0.30;;;;;;;23.31;50.30;100789.78;5069972;28;20483;-73
2022/09/04 11:41:29;;;;;;;0.50;0.50;;;;;;;23.44;49.68;100787.47;5068478;28;20877;-73
2022/09/04 11:44:45;;;;;;;0.40;0.40;;;;;;;23.24;49.68;100780.56;5069884;28;20567;-73
2022/09/04 11:47:37;;;;;;;0.00;0.00;;;;;;;23.48;49.59;100781.91;5038363;28;20626;-72
2022/09/04 11:50:33;;;;;;;0.20;0.20;;;;;;;23.71;48.71;100794.38;5069664;28;20169;-73
2022/09/04 11:53:30;;;;;;;0.20;0.20;;;;;;;23.85;48.82;100784.47;5062241;28;20187;-73
2022/09/04 11:56:14;;;;;;;0.00;0.00;;;;;;;24.07;49.13;100788.94;5073306;28;20188;-73
2022/09/04 11:59:20;;;;;;;0.20;0.20;;;;;;;24.08;48.49;100784.94;5073335;28;20178;-72
2022/09/04 12:02:17;;;;;;;0.10;0.10;;;;;;;24.21;48.42;100782.59;5067241;28;20313;-73
2022/09/04 12:04:52;;;;;;;0.20;0.13;;;;;;;24.16;48.16;100780.97;5073087;28;20661;-73
2022/09/04 12:07:41;;;;;;;0.00;0.00;;;;;;;24.57;47.98;100791.81;5072843;28;20181;-73
2022/09/04 12:10:26;;;;;;;0.70;0.70;;;;;;;24.81;47.67;100781.84;5072051;28;20182;-73
2022/09/04 12:13:26;;;;;;;0.27;0.27;;;;;;;25.02;46.61;100784.63;5073114;28;20182;-73
2022/09/04 12:16:03;;;;;;;0.10;0.10;;;;;;;25.05;46.85;100783.06;5073133;28;20178;-73
2022/09/04 12:18:56;;;;;;;0.00;0.00;;;;;;;24.96;46.61;100788.22;5073113;28;20565;-73
2022/09/04 12:21:30;;;;;;;0.10;0.03;;;;;;;24.39;47.25;100788.22;5072826;28;20199;-73
2022/09/04 12:23:58;;;;;;;0.60;0.60;;;;;;;24.22;47.38;100773.00;5072687;28;20216;-73
2022/09/04 12:26:37;;;;;;;0.20;0.20;;;;;;;24.28;47.25;100771.41;5073058;28;20174;-73
2022/09/04 12:29:05;;;;;;;0.03;0.03;;;;;;;24.50;48.07;100773.06;5072953;28;20174;-73
2022/09/04 12:31:50;;;;;;;0.00;0.00;;;;;;;24.59;47.15;100770.69;5072800;28;20568;-72
2022/09/04 12:34:56;;;;;;;0.00;0.00;;;;;;;24.51;47.48;100763.50;5071118;28;20197;-73
2022/09/04 12:37:59;;;;;;;0.00;0.00;;;;;;;24.53;47.28;100766.69;5072653;28;20182;-73
2022/09/04 12:40:57;;;;;;;0.00;0.00;;;;;;;24.68;47.70;100770.28;5072590;28;20254;-73
2022/09/04 12:43:32;;;;;;;0.10;0.10;;;;;;;24.49;47.41;100771.47;5066626;28;20241;-72
2022/09/04 12:46:32;;;;;;;0.17;0.17;;;;;;;24.22;47.41;100773.81;5072410;28;20209;-72
2022/09/04 12:49:38;;;;;;;0.63;0.63;;;;;;;24.32;47.57;100775.06;5072365;28;20197;-73
2022/09/04 12:52:10;;;;;;;0.13;0.13;;;;;;;24.47;47.92;100778.66;5072175;28;20187;-73